Time;durP1;ratioP1;P1;durP2;ratioP2;P2;SDS_P1;SDS_P2;PMS_P1;PMS_P2;Temp;Humidity;BMP_temperature;BMP_pressure;BME280_temperature;BME280_humidity;BME280_pressure;Samples;Min_cycle;Max_cycle;Signal;HPM_P1;HPM_P2
2022/01/10 00:02:03;;;;;;;11.78;5.37;;;;;;;4.08;76.62;100595.66;1847035;76;21147;-67
2022/01/10 00:04:31;;;;;;;7.28;4.05;;;;;;;4.02;76.97;100593.12;1847701;78;21590;-67
2022/01/10 00:07:00;;;;;;;11.45;4.35;;;;;;;4.00;76.90;100585.35;1847867;78;21519;-60
2022/01/10 00:09:28;;;;;;;9.30;3.55;;;;;;;4.00;76.79;100579.25;1847882;78;21043;-61
2022/01/10 00:11:57;;;;;;;10.28;4.55;;;;;;;4.01;76.68;100571.42;1847743;78;21045;-60
2022/01/10 00:14:26;;;;;;;12.13;4.80;;;;;;;4.02;76.62;100569.25;1847722;76;21127;-60
2022/01/10 00:16:55;;;;;;;9.38;4.42;;;;;;;3.97;76.73;100574.96;1847662;78;21448;-61
2022/01/10 00:19:24;;;;;;;10.08;4.58;;;;;;;3.96;76.96;100564.56;1847807;78;21128;-60
2022/01/10 00:21:52;;;;;;;11.28;4.62;;;;;;;3.98;76.85;100568.00;1847720;78;21002;-60
2022/01/10 00:24:21;;;;;;;9.38;4.15;;;;;;;4.00;76.89;100566.23;1847724;76;21156;-62
2022/01/10 00:26:50;;;;;;;8.48;3.95;;;;;;;3.98;76.98;100562.34;1847684;78;21115;-62
2022/01/10 00:29:19;;;;;;;9.00;4.03;;;;;;;3.96;77.12;100559.34;1847685;77;21067;-62
2022/01/10 00:31:48;;;;;;;9.68;4.15;;;;;;;3.95;77.25;100550.68;1847228;78;21104;-61
2022/01/10 00:34:17;;;;;;;8.78;4.03;;;;;;;3.93;77.25;100548.96;1846229;78;21543;-61
2022/01/10 00:36:47;;;;;;;11.60;4.78;;;;;;;3.93;77.18;100549.84;1846301;78;21038;-64
2022/01/10 00:39:15;;;;;;;11.70;4.85;;;;;;;3.94;77.08;100546.79;1846343;77;21034;-65
2022/01/10 00:41:49;;;;;;;10.93;4.17;;;;;;;3.90;77.08;100543.38;1846283;78;21120;-64
2022/01/10 00:44:15;;;;;;;9.18;4.30;;;;;;;3.88;77.13;100546.44;1845457;77;21042;-63
2022/01/10 00:46:43;;;;;;;10.20;4.17;;;;;;;3.85;77.20;100539.55;1846219;78;21492;-65
2022/01/10 00:49:13;;;;;;;8.35;4.20;;;;;;;3.83;77.18;100542.59;1846337;78;21038;-64
2022/01/10 00:51:42;;;;;;;9.25;4.22;;;;;;;3.84;77.17;100546.08;1846281;78;21081;-65
2022/01/10 00:54:11;;;;;;;10.08;4.20;;;;;;;3.82;77.15;100538.73;1846127;78;21096;-65
2022/01/10 00:56:39;;;;;;;7.45;3.92;;;;;;;3.82;77.05;100538.73;1846180;78;21014;-64
2022/01/10 00:59:08;;;;;;;7.92;3.83;;;;;;;3.78;77.02;100533.12;1846226;78;21049;-65
2022/01/10 01:01:37;;;;;;;11.83;4.75;;;;;;;3.74;77.00;100533.60;1846211;77;21136;-66
2022/01/10 01:04:06;;;;;;;10.05;4.28;;;;;;;3.72;76.98;100534.52;1846778;77;21538;-64
2022/01/10 01:06:34;;;;;;;9.30;3.90;;;;;;;3.68;77.07;100535.85;1846815;76;21041;-65
2022/01/10 01:09:08;;;;;;;10.72;4.50;;;;;;;3.68;77.03;100541.06;1846940;78;21034;-64
2022/01/10 01:14:36;;;;;;;9.30;4.03;;;;;;;3.59;77.03;100527.31;1846818;77;21144;-64
2022/01/10 01:17:11;;;;;;;9.08;4.42;;;;;;;3.54;77.11;100518.70;1844598;77;21140;-65
2022/01/10 01:20:04;;;;;;;7.90;3.87;;;;;;;3.52;77.16;100524.38;1845021;77;21065;-64
2022/01/10 01:24:46;;;;;;;9.33;4.25;;;;;;;3.44;77.15;100516.22;1846777;77;21050;-64
2022/01/10 01:27:15;;;;;;;9.03;4.22;;;;;;;3.39;77.16;100520.62;1846812;78;21540;-65
2022/01/10 01:29:44;;;;;;;10.53;4.05;;;;;;;3.36;77.24;100520.68;1846722;77;21161;-64
2022/01/10 01:32:12;;;;;;;11.08;4.50;;;;;;;3.35;77.18;100512.44;1847537;78;21057;-64
2022/01/10 01:34:41;;;;;;;9.58;3.87;;;;;;;3.31;77.23;100506.86;1848256;78;21219;-64
2022/01/10 01:37:11;;;;;;;7.85;4.20;;;;;;;3.26;77.32;100504.75;1848266;77;21065;-66
2022/01/10 01:39:40;;;;;;;10.90;4.78;;;;;;;3.24;77.32;100506.52;1848281;78;21061;-66
2022/01/10 01:42:33;;;;;;;9.55;4.67;;;;;;;3.17;77.42;100503.56;1848154;78;21093;-66
2022/01/10 01:44:49;;;;;;;10.53;4.60;;;;;;;3.15;77.41;100501.42;1845977;77;21131;-65
2022/01/10 01:47:18;;;;;;;11.25;4.87;;;;;;;3.12;77.39;100493.64;1848226;77;21560;-66
2022/01/10 01:49:48;;;;;;;16.87;4.60;;;;;;;3.08;77.38;100495.01;1848363;78;21552;-65
2022/01/10 01:52:16;;;;;;;18.37;5.55;;;;;;;3.05;77.40;100494.19;1848243;78;21070;-65
2022/01/10 01:54:45;;;;;;;10.78;4.65;;;;;;;3.05;77.52;100491.13;1848205;78;21525;-68
2022/01/10 01:57:14;;;;;;;10.53;5.60;;;;;;;3.05;77.48;100491.13;1848211;77;21042;-63
2022/01/10 01:59:43;;;;;;;11.45;5.42;;;;;;;3.01;77.54;100492.05;1848252;78;21591;-65
2022/01/10 02:02:12;;;;;;;17.37;5.75;;;;;;;2.98;77.67;100487.33;1848261;76;21559;-64
2022/01/10 02:04:41;;;;;;;14.68;6.75;;;;;;;3.00;77.64;100489.47;1848299;76;21096;-61
2022/01/10 02:07:10;;;;;;;21.27;6.75;;;;;;;2.95;77.70;100484.34;1848371;78;21049;-63
2022/01/10 02:09:40;;;;;;;20.15;5.75;;;;;;;2.91;77.80;100472.22;1848238;78;21077;-60
2022/01/10 02:12:09;;;;;;;14.13;5.35;;;;;;;2.89;77.88;100480.48;1848257;77;21057;-60
2022/01/10 02:14:40;;;;;;;19.10;6.37;;;;;;;2.87;77.87;100480.95;1848257;77;21615;-61
2022/01/10 02:17:12;;;;;;;12.60;5.28;;;;;;;2.83;78.03;100473.62;1848372;76;21033;-65
2022/01/10 02:19:41;;;;;;;14.07;4.85;;;;;;;2.80;77.94;100474.09;1847177;76;21125;-66
2022/01/10 02:22:10;;;;;;;13.03;5.00;;;;;;;2.80;77.80;100468.89;1848244;78;21082;-64
2022/01/10 02:24:40;;;;;;;8.73;4.37;;;;;;;2.77;77.65;100468.95;1846724;77;21077;-63
2022/01/10 02:27:10;;;;;;;12.05;5.17;;;;;;;2.72;77.67;100467.69;1824591;78;21464;-63
2022/01/10 02:29:39;;;;;;;9.70;4.85;;;;;;;2.69;77.72;100463.80;1848212;78;21070;-62
2022/01/10 02:32:08;;;;;;;10.88;4.37;;;;;;;2.64;77.79;100466.47;1847448;76;21103;-62
2022/01/10 02:34:37;;;;;;;11.25;5.25;;;;;;;2.62;77.97;100470.83;1846754;78;21596;-62
2022/01/10 02:37:06;;;;;;;9.58;4.30;;;;;;;2.61;78.07;100469.09;1846771;77;21057;-62
2022/01/10 02:39:36;;;;;;;11.75;4.75;;;;;;;2.61;78.04;100467.80;1846780;77;21603;-64
2022/01/10 02:42:05;;;;;;;10.00;4.53;;;;;;;2.60;78.05;100469.98;1846858;77;21082;-62
2022/01/10 02:44:34;;;;;;;8.70;4.45;;;;;;;2.59;78.04;100466.95;1846806;78;21532;-65
2022/01/10 02:47:03;;;;;;;11.48;3.75;;;;;;;2.57;78.06;100475.21;1846712;77;21081;-64
2022/01/10 02:49:33;;;;;;;11.28;4.62;;;;;;;2.55;78.14;100474.81;1846622;77;21163;-62
2022/01/10 02:52:03;;;;;;;14.18;4.42;;;;;;;2.53;78.17;100477.42;1846792;78;21191;-63
2022/01/10 02:54:33;;;;;;;10.82;4.35;;;;;;;2.50;78.22;100476.14;1846794;77;21177;-62
2022/01/10 02:57:03;;;;;;;11.63;5.08;;;;;;;2.48;78.23;100477.91;1846105;77;21085;-63
2022/01/10 02:59:32;;;;;;;11.43;4.87;;;;;;;2.46;78.21;100471.86;1846827;77;21059;-62
2022/01/10 03:02:01;;;;;;;11.80;5.12;;;;;;;2.44;78.22;100472.32;1846843;78;21064;-64
2022/01/10 03:04:30;;;;;;;11.55;4.62;;;;;;;2.42;78.10;100474.92;1846733;77;21074;-62
2022/01/10 03:06:58;;;;;;;9.50;4.78;;;;;;;2.40;77.96;100475.38;1846884;77;21099;-65
2022/01/10 03:09:28;;;;;;;10.10;4.85;;;;;;;2.37;78.00;100477.15;1846858;76;21061;-65
2022/01/10 03:11:56;;;;;;;14.38;4.90;;;;;;;2.31;78.15;100477.63;1846645;76;21098;-65
2022/01/10 03:14:25;;;;;;;11.20;4.42;;;;;;;2.28;78.10;100471.14;1846825;78;21108;-65
2022/01/10 03:16:54;;;;;;;17.17;5.03;;;;;;;2.25;78.18;100475.09;1846740;77;21169;-64
2022/01/10 03:19:23;;;;;;;19.80;5.58;;;;;;;2.25;78.03;100475.51;1846770;78;21161;-63
2022/01/10 03:21:51;;;;;;;18.00;6.05;;;;;;;2.23;77.96;100469.47;1846708;78;21085;-66
2022/01/10 03:24:20;;;;;;;13.15;5.65;;;;;;;2.22;77.90;100475.11;1846602;77;21122;-66
2022/01/10 03:26:50;;;;;;;20.70;5.15;;;;;;;2.16;78.12;100476.48;1846706;78;21581;-67
2022/01/10 03:29:19;;;;;;;15.80;5.47;;;;;;;2.13;78.25;100476.05;1846779;78;21066;-67
2022/01/10 03:31:48;;;;;;;13.10;4.60;;;;;;;2.12;78.29;100484.73;1847206;78;21528;-67
2022/01/10 03:34:17;;;;;;;15.15;5.17;;;;;;;2.13;78.12;100480.39;1848187;78;21588;-60
2022/01/10 03:36:46;;;;;;;14.15;4.70;;;;;;;2.13;77.91;100482.98;1848297;78;21111;-64
2022/01/10 03:39:16;;;;;;;19.05;5.45;;;;;;;2.10;77.84;100479.11;1848496;78;21049;-65
2022/01/10 03:41:45;;;;;;;17.73;4.75;;;;;;;2.10;77.79;100483.00;1848292;78;21094;-66
2022/01/10 03:44:14;;;;;;;13.78;5.62;;;;;;;2.11;77.81;100480.84;1848349;78;21050;-66
2022/01/10 03:46:43;;;;;;;21.57;6.78;;;;;;;2.11;77.75;100480.84;1848283;77;21630;-62
2022/01/10 03:49:12;;;;;;;23.27;6.00;;;;;;;2.06;77.92;100482.61;1848373;78;21606;-66
2022/01/10 03:51:42;;;;;;;20.77;5.75;;;;;;;2.05;78.04;100488.70;1848259;77;21166;-66
2022/01/10 03:54:10;;;;;;;19.62;5.78;;;;;;;2.02;78.09;100492.60;1848334;78;21558;-65
2022/01/10 03:56:39;;;;;;;18.32;5.72;;;;;;;2.00;78.14;100490.45;1848375;77;21066;-63
2022/01/10 03:59:09;;;;;;;22.52;6.83;;;;;;;1.99;78.06;100501.70;1848292;78;21065;-64
2022/01/10 04:01:39;;;;;;;13.78;5.83;;;;;;;1.93;78.12;100499.57;1848322;78;21041;-65
2022/01/10 04:04:09;;;;;;;13.43;5.40;;;;;;;1.91;78.12;100502.63;1848074;77;21252;-61
2022/01/10 04:06:38;;;;;;;16.48;5.22;;;;;;;1.87;78.14;100501.37;1847702;77;21065;-62
2022/01/10 04:09:06;;;;;;;16.23;6.17;;;;;;;1.86;78.11;100507.02;1847696;78;21054;-63
2022/01/10 04:11:35;;;;;;;22.45;6.87;;;;;;;1.81;78.27;100507.47;1847682;77;21554;-65
2022/01/10 04:14:06;;;;;;;19.07;5.85;;;;;;;1.77;78.50;100506.19;1847174;77;21569;-62
2022/01/10 04:16:35;;;;;;;15.45;6.35;;;;;;;1.76;78.43;100502.73;1847639;76;21449;-62
2022/01/10 04:19:04;;;;;;;19.92;5.75;;;;;;;1.76;78.33;100500.14;1847597;78;21045;-62
2022/01/10 04:21:33;;;;;;;19.65;6.15;;;;;;;1.76;78.14;100497.55;1847673;77;21504;-62
2022/01/10 04:24:02;;;;;;;17.77;6.45;;;;;;;1.75;78.08;100501.00;1847698;77;21574;-61
2022/01/10 04:26:32;;;;;;;22.48;5.80;;;;;;;1.73;78.05;100498.44;1847819;78;21492;-62
2022/01/10 04:29:01;;;;;;;16.00;6.12;;;;;;;1.72;78.02;100501.89;1847609;78;21049;-62
2022/01/10 04:31:30;;;;;;;16.87;7.25;;;;;;;1.70;78.08;100502.34;1847564;77;21551;-63
2022/01/10 04:33:58;;;;;;;22.87;8.38;;;;;;;1.68;78.12;100509.73;1846220;78;21484;-62
2022/01/10 04:36:27;;;;;;;23.07;7.75;;;;;;;1.68;78.19;100504.54;1846208;77;21070;-62
2022/01/10 04:38:56;;;;;;;25.20;8.08;;;;;;;1.67;78.15;100505.39;1846203;76;21513;-63
2022/01/10 04:41:26;;;;;;;23.00;7.62;;;;;;;1.65;78.25;100503.25;1846138;78;21045;-63
2022/01/10 04:43:54;;;;;;;17.15;7.00;;;;;;;1.62;78.32;100509.74;1846378;78;21120;-63
2022/01/10 04:46:23;;;;;;;23.87;7.17;;;;;;;1.60;78.38;100510.19;1846208;78;21117;-62
2022/01/10 04:48:52;;;;;;;16.57;7.75;;;;;;;1.58;78.49;100512.80;1846218;78;21131;-62
2022/01/10 04:51:21;;;;;;;24.50;9.98;;;;;;;1.57;78.55;100515.39;1846197;77;21042;-62
2022/01/10 04:53:52;;;;;;;15.90;7.37;;;;;;;1.57;78.57;100517.98;1846101;76;21058;-64
2022/01/10 04:56:22;;;;;;;19.27;6.80;;;;;;;1.57;78.62;100511.50;1846289;78;21578;-62
2022/01/10 04:58:53;;;;;;;14.25;7.15;;;;;;;1.58;78.58;100517.12;1846158;77;21512;-62
2022/01/10 05:01:23;;;;;;;16.40;6.90;;;;;;;1.58;78.51;100526.21;1846304;78;21108;-62
2022/01/10 05:03:54;;;;;;;23.20;8.95;;;;;;;1.59;78.36;100531.84;1846168;77;21234;-63
2022/01/10 05:06:23;;;;;;;31.10;9.48;;;;;;;1.56;78.33;100525.36;1846721;76;21527;-63
2022/01/10 05:08:52;;;;;;;25.88;9.38;;;;;;;1.54;78.32;100529.26;1846992;78;21461;-63
2022/01/10 05:11:38;;;;;;;29.20;8.68;;;;;;;1.48;78.41;100531.45;1845858;77;21186;-63
2022/01/10 05:14:05;;;;;;;20.77;7.25;;;;;;;1.46;78.50;100535.80;1846601;77;21086;-66
2022/01/10 05:16:33;;;;;;;20.57;7.25;;;;;;;1.48;78.44;100535.34;1846772;77;21108;-65
2022/01/10 05:19:02;;;;;;;21.12;8.48;;;;;;;1.46;78.54;100542.72;1846693;77;21540;-66
2022/01/10 05:21:31;;;;;;;18.92;7.67;;;;;;;1.47;78.52;100540.53;1846916;76;21062;-64
2022/01/10 05:24:00;;;;;;;17.45;8.45;;;;;;;1.45;78.56;100528.86;1847008;78;21116;-65
2022/01/10 05:26:29;;;;;;;22.13;8.10;;;;;;;1.44;78.71;100528.45;1846813;77;21018;-65
2022/01/10 05:28:59;;;;;;;20.70;7.72;;;;;;;1.50;78.71;100534.89;1846878;77;21570;-63
2022/01/10 05:31:33;;;;;;;31.20;8.98;;;;;;;1.57;78.57;100539.63;1846885;77;21098;-66
2022/01/10 05:34:03;;;;;;;21.17;7.45;;;;;;;1.64;78.50;100541.73;1846708;77;21143;-64
2022/01/10 05:36:31;;;;;;;21.42;8.38;;;;;;;1.70;78.56;100543.02;1848294;77;21508;-62
2022/01/10 05:39:00;;;;;;;22.25;7.97;;;;;;;1.77;78.58;100540.83;1848282;78;21069;-63
2022/01/10 05:41:30;;;;;;;24.25;6.25;;;;;;;1.89;78.38;100548.95;1848274;78;21504;-59
2022/01/10 05:43:59;;;;;;;19.67;6.90;;;;;;;2.03;78.05;100551.44;1851785;76;21541;-61
2022/01/10 05:46:28;;;;;;;24.10;7.25;;;;;;;2.13;77.87;100547.92;1879896;76;21562;-58
2022/01/10 05:49:01;;;;;;;23.67;7.75;;;;;;;2.19;77.87;100545.27;1880105;76;21134;-58
2022/01/10 05:51:29;;;;;;;26.85;8.40;;;;;;;2.27;77.84;100551.28;1879693;76;21541;-58
2022/01/10 05:54:00;;;;;;;16.75;7.40;;;;;;;2.40;77.70;100546.84;1879427;76;21115;-58
2022/01/10 05:56:30;;;;;;;20.65;7.45;;;;;;;2.53;77.59;100554.09;1879879;75;21087;-56
2022/01/10 05:59:01;;;;;;;21.12;6.90;;;;;;;2.63;77.36;100558.32;1879957;76;21551;-58
2022/01/10 06:01:30;;;;;;;23.75;7.03;;;;;;;2.72;77.16;100553.92;1880060;75;21062;-57
2022/01/10 06:04:00;;;;;;;16.87;6.55;;;;;;;2.82;76.96;100560.33;1879582;76;21069;-57
2022/01/10 06:06:30;;;;;;;17.27;6.12;;;;;;;2.93;76.76;100556.29;1878199;76;21153;-57
2022/01/10 06:08:59;;;;;;;16.52;6.58;;;;;;;3.06;76.57;100550.09;1879873;76;21603;-57
2022/01/10 06:11:28;;;;;;;16.32;8.88;;;;;;;3.17;76.40;100551.70;1879964;76;21043;-56
2022/01/10 06:13:57;;;;;;;25.30;9.25;;;;;;;3.28;76.21;100556.33;1879830;76;21049;-56
2022/01/10 06:16:27;;;;;;;37.55;10.13;;;;;;;3.44;75.99;100555.27;1879872;75;21047;-57
2022/01/10 06:18:56;;;;;;;16.60;8.98;;;;;;;3.80;75.70;100549.58;1879905;76;21116;-59
2022/01/10 06:21:25;;;;;;;23.40;10.32;;;;;;;4.20;75.23;100553.75;1879882;75;21591;-57
2022/01/10 06:23:54;;;;;;;22.70;9.35;;;;;;;4.79;74.44;100548.86;1879989;76;21172;-58
2022/01/10 06:26:23;;;;;;;19.12;10.10;;;;;;;5.66;73.32;100554.53;1879894;76;21501;-57
2022/01/10 06:28:52;;;;;;;26.85;9.80;;;;;;;6.49;72.33;100561.36;1878581;76;21559;-57
2022/01/10 06:31:22;;;;;;;24.70;8.73;;;;;;;7.06;70.71;100549.83;1878678;76;21045;-57
2022/01/10 06:33:56;;;;;;;19.02;9.70;;;;;;;7.63;69.86;100545.13;1878635;76;21530;-59
2022/01/10 06:36:24;;;;;;;20.70;11.40;;;;;;;7.97;69.35;100536.24;1879883;76;21046;-57
2022/01/10 06:38:54;;;;;;;19.10;9.60;;;;;;;8.07;68.47;100528.47;1879927;76;21054;-58
2022/01/10 06:41:23;;;;;;;23.90;8.53;;;;;;;8.43;67.30;100529.53;1880073;76;21124;-58
2022/01/10 06:43:52;;;;;;;19.92;9.75;;;;;;;8.69;67.00;100535.20;1878630;76;21508;-59
2022/01/10 06:46:21;;;;;;;23.32;8.75;;;;;;;8.74;67.01;100536.80;1879820;76;21456;-58
2022/01/10 06:48:50;;;;;;;19.10;7.42;;;;;;;8.72;67.13;100538.16;1879064;76;21050;-58
2022/01/10 06:51:21;;;;;;;15.70;6.90;;;;;;;8.92;66.28;100528.28;1878027;76;21559;-59
2022/01/10 06:53:51;;;;;;;26.10;8.45;;;;;;;9.14;65.14;100532.31;1878028;76;21038;-56
2022/01/10 06:56:19;;;;;;;19.25;6.33;;;;;;;9.66;64.32;100532.13;1878152;76;21501;-56
2022/01/10 06:58:48;;;;;;;15.80;6.58;;;;;;;10.09;64.12;100526.94;1878212;76;21031;-58
2022/01/10 07:01:20;;;;;;;15.50;6.33;;;;;;;10.58;63.28;100528.43;1877520;76;21102;-57
2022/01/10 07:03:57;;;;;;;15.38;6.25;;;;;;;11.06;62.51;100536.91;1878112;76;21062;-57
2022/01/10 07:06:22;;;;;;;27.02;8.05;;;;;;;11.44;61.53;100525.58;1877237;76;21540;-58
2022/01/10 07:08:52;;;;;;;16.27;5.75;;;;;;;11.82;60.80;100527.72;1877981;76;21132;-58
2022/01/10 07:11:22;;;;;;;19.32;6.65;;;;;;;12.17;59.92;100526.52;1877249;76;21034;-58
2022/01/10 07:13:52;;;;;;;18.15;7.40;;;;;;;12.54;59.25;100523.36;1878275;76;21496;-58
2022/01/10 07:16:22;;;;;;;24.50;7.60;;;;;;;12.88;58.57;100522.97;1878232;76;21030;-58
2022/01/10 07:18:52;;;;;;;22.13;7.95;;;;;;;13.10;57.96;100518.25;1877698;76;21086;-58
2022/01/10 07:21:23;;;;;;;18.57;7.25;;;;;;;13.36;57.03;100517.84;1877270;76;21061;-58
2022/01/10 07:23:51;;;;;;;25.95;8.20;;;;;;;13.46;55.37;100515.06;1878092;76;21130;-58
2022/01/10 07:26:22;;;;;;;21.90;8.58;;;;;;;13.66;54.79;100518.78;1878167;76;21034;-58
2022/01/10 07:28:51;;;;;;;20.70;8.50;;;;;;;13.84;54.08;100511.61;1878112;76;21505;-58
2022/01/10 07:31:19;;;;;;;32.80;8.35;;;;;;;13.80;53.57;100520.67;1878134;76;21034;-58
2022/01/10 07:33:48;;;;;;;30.12;8.53;;;;;;;13.86;52.73;100518.99;1878134;76;21066;-58
2022/01/10 07:36:17;;;;;;;19.52;7.75;;;;;;;14.09;52.46;100521.67;1878138;76;21085;-58
2022/01/10 07:38:45;;;;;;;21.45;9.95;;;;;;;14.40;51.73;100519.03;1878035;76;21014;-58
2022/01/10 07:41:14;;;;;;;19.30;8.18;;;;;;;14.44;51.75;100510.83;1878205;76;21104;-58
2022/01/10 07:43:43;;;;;;;22.40;8.30;;;;;;;14.54;51.60;100508.48;1878112;76;21124;-57
2022/01/10 07:46:12;;;;;;;17.12;9.43;;;;;;;14.43;51.79;100502.97;1878163;76;21535;-58
2022/01/10 07:48:44;;;;;;;26.68;15.88;;;;;;;14.33;52.10;100501.79;1878120;76;21545;-58
2022/01/10 07:51:13;;;;;;;21.02;11.00;;;;;;;14.38;51.77;100503.23;1889411;76;21013;-59
2022/01/10 07:53:43;;;;;;;17.30;8.40;;;;;;;14.14;51.86;100497.56;1856093;77;21460;-58
2022/01/10 07:56:12;;;;;;;16.32;8.45;;;;;;;13.93;51.77;100490.88;1889489;76;21079;-58
2022/01/10 07:58:41;;;;;;;17.80;8.03;;;;;;;14.00;51.54;100494.85;1889502;76;21045;-58
2022/01/10 08:01:10;;;;;;;25.43;7.97;;;;;;;14.19;50.93;100499.97;1889847;76;21057;-58
2022/01/10 08:03:38;;;;;;;20.55;7.67;;;;;;;14.44;50.37;100498.03;1889398;76;21022;-58
2022/01/10 08:06:07;;;;;;;14.40;7.55;;;;;;;14.63;49.92;100492.07;1889497;76;21088;-57
2022/01/10 08:08:36;;;;;;;18.75;7.97;;;;;;;14.88;49.47;100491.90;1879188;76;21046;-58
2022/01/10 08:11:05;;;;;;;17.62;8.65;;;;;;;15.00;49.42;100485.86;1877207;76;20990;-57
2022/01/10 08:13:34;;;;;;;18.87;9.73;;;;;;;15.02;49.23;100487.94;1877205;76;21034;-57
2022/01/10 08:16:04;;;;;;;23.80;10.10;;;;;;;14.91;49.32;100481.60;1877127;76;21055;-57
2022/01/10 08:18:34;;;;;;;23.25;11.73;;;;;;;15.18;48.89;100476.37;1877233;76;21086;-58
2022/01/10 08:21:06;;;;;;;25.52;10.45;;;;;;;15.42;48.38;100473.52;1877456;76;21513;-58
2022/01/10 08:23:35;;;;;;;17.67;9.20;;;;;;;15.58;47.68;100476.50;1877229;76;21034;-58
2022/01/10 08:26:08;;;;;;;18.73;8.18;;;;;;;15.72;47.39;100476.48;1877173;76;21037;-57
2022/01/10 08:28:35;;;;;;;22.98;9.20;;;;;;;15.94;47.19;100467.16;1876905;76;21026;-58
2022/01/10 08:31:04;;;;;;;22.60;8.20;;;;;;;16.28;46.80;100457.77;1877193;76;21460;-58
2022/01/10 08:33:33;;;;;;;27.67;13.70;;;;;;;16.72;46.13;100464.52;1877200;76;21468;-57
2022/01/10 08:36:02;;;;;;;34.67;18.52;;;;;;;17.00;45.42;100456.45;1844146;78;21103;-57
2022/01/10 08:38:30;;;;;;;23.38;11.12;;;;;;;17.34;44.98;100454.42;1877253;76;21038;-56
2022/01/10 08:40:59;;;;;;;23.87;10.60;;;;;;;17.63;44.42;100450.60;1844157;78;21037;-58
2022/01/10 08:43:28;;;;;;;17.92;8.28;;;;;;;18.01;43.79;100446.47;1877183;76;21134;-57
2022/01/10 08:45:57;;;;;;;24.10;8.43;;;;;;;18.40;43.03;100436.91;1877192;76;21111;-57
2022/01/10 08:48:25;;;;;;;16.45;7.85;;;;;;;18.77;42.37;100428.22;1877227;76;20999;-57
2022/01/10 08:50:54;;;;;;;23.65;8.08;;;;;;;18.99;42.02;100427.90;1877363;76;21046;-55
2022/01/10 08:53:23;;;;;;;15.88;7.95;;;;;;;19.17;41.50;100426.44;1877193;76;21046;-54
2022/01/10 08:55:52;;;;;;;22.98;7.45;;;;;;;19.40;41.32;100414.38;1877060;76;21146;-56
2022/01/10 08:58:21;;;;;;;23.70;9.33;;;;;;;19.72;40.65;100414.42;1877339;76;21105;-56
2022/01/10 09:00:50;;;;;;;21.60;8.03;;;;;;;19.98;40.11;100412.27;1877280;76;21018;-55
2022/01/10 09:03:19;;;;;;;20.65;8.35;;;;;;;20.08;39.64;100403.48;1877172;76;21018;-56
2022/01/10 09:05:48;;;;;;;18.73;8.40;;;;;;;20.29;39.59;100405.68;1877172;76;21609;-57
2022/01/10 09:08:17;;;;;;;24.15;9.48;;;;;;;20.54;38.94;100402.23;1877137;76;21057;-55
2022/01/10 09:10:45;;;;;;;27.40;11.03;;;;;;;20.90;38.40;100394.70;1877266;76;21092;-57
2022/01/10 09:13:14;;;;;;;29.42;12.20;;;;;;;21.03;37.98;100392.63;1844148;78;21096;-56
2022/01/10 09:15:46;;;;;;;35.48;11.97;;;;;;;21.12;37.64;100388.28;1877131;76;21014;-55
2022/01/10 09:18:16;;;;;;;31.15;12.43;;;;;;;20.99;37.92;100384.02;1877452;76;21539;-56
2022/01/10 09:20:46;;;;;;;26.70;12.50;;;;;;;20.99;37.93;100384.02;1877346;76;21555;-57
2022/01/10 09:23:15;;;;;;;32.78;13.28;;;;;;;21.21;37.47;100384.28;1877157;76;21034;-56
2022/01/10 09:25:45;;;;;;;30.65;11.15;;;;;;;21.52;37.12;100380.19;1844359;78;21424;-57
2022/01/10 09:28:13;;;;;;;27.80;12.00;;;;;;;21.76;36.86;100381.62;1877193;76;21617;-57
2022/01/10 09:30:42;;;;;;;25.52;10.30;;;;;;;21.89;36.52;100374.62;1877157;76;21080;-57
2022/01/10 09:33:11;;;;;;;22.32;9.73;;;;;;;21.92;36.41;100379.72;1877012;76;21014;-58
2022/01/10 09:35:41;;;;;;;22.77;8.40;;;;;;;22.22;35.82;100373.81;1877109;76;21390;-57
2022/01/10 09:38:10;;;;;;;17.40;7.45;;;;;;;22.24;35.68;100364.62;1877287;76;21157;-57
2022/01/10 09:40:40;;;;;;;26.25;8.73;;;;;;;22.10;35.85;100358.40;1877174;76;21538;-56
2022/01/10 09:43:08;;;;;;;22.55;8.00;;;;;;;22.00;35.89;100357.56;1877163;76;21540;-56
2022/01/10 09:45:38;;;;;;;24.43;9.18;;;;;;;21.95;35.46;100344.09;1877301;76;21093;-56
2022/01/10 09:48:08;;;;;;;25.97;9.00;;;;;;;22.28;35.26;100344.63;1877099;76;21511;-56
2022/01/10 09:50:37;;;;;;;28.57;11.08;;;;;;;22.43;34.81;100338.77;1877130;76;20994;-55
2022/01/10 09:53:06;;;;;;;32.40;9.88;;;;;;;22.75;34.59;100335.69;1877140;76;21126;-56
2022/01/10 09:55:34;;;;;;;30.85;10.43;;;;;;;22.93;34.39;100339.27;1877226;76;21070;-56
2022/01/10 09:58:04;;;;;;;29.98;11.10;;;;;;;22.96;34.29;100335.42;1844120;78;21112;-56
2022/01/10 10:00:33;;;;;;;26.07;10.35;;;;;;;23.05;34.16;100326.50;1877055;76;21612;-57
2022/01/10 10:03:02;;;;;;;24.80;9.83;;;;;;;23.16;34.30;100327.30;1877159;76;21515;-56
2022/01/10 10:05:31;;;;;;;26.80;10.23;;;;;;;23.50;34.11;100334.20;1877359;76;21425;-57
2022/01/10 10:08:00;;;;;;;27.60;10.60;;;;;;;23.64;33.65;100328.25;1844116;78;21010;-57
2022/01/10 10:10:30;;;;;;;23.95;9.25;;;;;;;23.63;33.50;100331.12;1877183;76;21111;-56
2022/01/10 10:12:58;;;;;;;25.68;8.93;;;;;;;23.71;33.39;100323.11;1877033;76;21460;-57
2022/01/10 10:15:31;;;;;;;18.12;7.97;;;;;;;23.77;33.18;100314.92;1877231;76;21054;-57
2022/01/10 10:17:57;;;;;;;22.15;9.88;;;;;;;23.78;33.05;100316.62;1876975;76;21014;-56
2022/01/10 10:20:27;;;;;;;19.20;8.25;;;;;;;23.72;33.10;100320.78;1877147;76;21017;-57
2022/01/10 10:22:56;;;;;;;20.85;7.90;;;;;;;23.70;33.07;100314.22;1877130;76;21010;-56
2022/01/10 10:25:24;;;;;;;16.20;6.17;;;;;;;23.65;33.09;100318.37;1877153;76;21014;-57
2022/01/10 10:27:53;;;;;;;17.82;6.28;;;;;;;23.49;33.31;100315.86;1877143;76;21041;-56
2022/01/10 10:30:27;;;;;;;21.15;6.83;;;;;;;23.71;32.92;100316.39;1877116;76;21026;-56
2022/01/10 10:33:13;;;;;;;23.47;7.92;;;;;;;23.71;32.63;100309.67;1844145;78;21022;-57
2022/01/10 10:35:43;;;;;;;18.77;6.97;;;;;;;23.73;32.84;100315.73;1875807;76;21094;-56
2022/01/10 10:38:11;;;;;;;18.15;6.70;;;;;;;23.82;32.58;100306.77;1877178;76;21086;-55
2022/01/10 10:40:44;;;;;;;19.25;5.83;;;;;;;23.91;32.46;100309.53;1877142;76;20998;-56
2022/01/10 10:43:13;;;;;;;13.68;5.72;;;;;;;24.06;32.28;100314.16;1877275;76;21516;-56
2022/01/10 10:45:43;;;;;;;19.12;5.83;;;;;;;24.31;32.12;100314.80;1877117;76;21472;-56
2022/01/10 10:48:12;;;;;;;14.40;5.33;;;;;;;24.54;31.66;100320.52;1877120;76;21527;-57
2022/01/10 10:50:42;;;;;;;15.08;6.12;;;;;;;24.30;31.47;100313.97;1877133;76;21144;-56
2022/01/10 10:53:14;;;;;;;12.90;5.15;;;;;;;24.11;31.88;100320.42;1877228;76;21007;-56
2022/01/10 10:55:46;;;;;;;16.90;4.80;;;;;;;24.15;31.95;100323.13;1877156;76;21034;-55
2022/01/10 10:58:15;;;;;;;13.68;5.30;;;;;;;24.02;31.96;100318.68;1877279;76;21035;-57
2022/01/10 11:00:44;;;;;;;13.13;4.47;;;;;;;23.86;32.14;100323.42;1877141;76;21062;-56
2022/01/10 11:03:15;;;;;;;16.17;5.37;;;;;;;23.26;32.98;100323.55;1877037;76;21030;-57
2022/01/10 11:05:44;;;;;;;18.10;5.50;;;;;;;22.59;33.83;100326.92;1877195;76;21034;-57
2022/01/10 11:08:13;;;;;;;13.53;5.90;;;;;;;22.71;33.84;100326.25;1877171;76;21034;-56
2022/01/10 11:10:41;;;;;;;13.70;5.20;;;;;;;22.84;33.60;100327.25;1877045;76;21046;-56
2022/01/10 11:13:12;;;;;;;10.98;4.53;;;;;;;22.84;33.43;100340.67;1877071;76;21155;-55
2022/01/10 11:15:42;;;;;;;10.75;5.28;;;;;;;22.73;33.44;100335.83;1876972;76;21185;-56
2022/01/10 11:18:11;;;;;;;13.58;4.95;;;;;;;22.84;33.29;100340.67;1877243;76;20982;-56
2022/01/10 11:20:48;;;;;;;10.72;4.80;;;;;;;22.91;33.49;100333.71;1877099;76;21489;-56
2022/01/10 11:23:17;;;;;;;13.18;6.42;;;;;;;22.71;33.68;100342.36;1877082;76;21080;-57
2022/01/10 11:25:46;;;;;;;12.93;4.80;;;;;;;22.58;33.87;100346.72;1877327;76;21104;-57
2022/01/10 11:28:26;;;;;;;12.90;5.05;;;;;;;22.36;34.20;100350.09;1877033;76;21093;-57
2022/01/10 11:31:07;;;;;;;13.55;5.10;;;;;;;21.74;35.05;100356.80;1877128;76;20986;-56
2022/01/10 11:33:41;;;;;;;14.13;5.42;;;;;;;21.12;36.11;100355.66;1877115;76;20990;-54
2022/01/10 11:36:12;;;;;;;16.12;5.28;;;;;;;21.12;36.20;100354.83;1876499;76;21042;-54
2022/01/10 11:38:53;;;;;;;15.23;4.45;;;;;;;21.13;36.33;100347.97;1876996;76;21152;-56